Latest Weather Observations for Kingscote

IDS60801

Issued at 11:05 pm CST Tuesday 2 September 2014 (issued every 30 minutes, with the page automatically refreshed every 10 minutes)

About weather observations | Map of weather stations | Latest weather observations for SA | Other Formats
Station Details ID: 022841 Name: KINGSCOTE AERO Lat: -35.71 Lon: 137.52 Height: 6.23 m
Data from the previous 72 hours. | See also: Recent months at Kingscote
Date/Time
CST
Temp
°C
App
Temp
°C
Dew
Point
Rel
Hum
%
Delta-T
°C
Wind Press
QNH
hPa
Press
MSL
hPa
Rain
since 9 am
mm
Dir
 
Spd
km/h
Gust
km/h
Spd
kts
Gust
kts
02/11:00pm 4.3 3.0 3.9 97 0.2 W 0 0 0 0 1027.3 1027.3 1.2
02/10:30pm 4.4 3.0 3.8 96 0.2 W 0 0 0 0 1027.7 1027.7 1.2
02/10:00pm 5.3 4.1 4.7 96 0.3 CALM 0 0 0 0 1027.7 1027.7 1.2
02/09:30pm 5.7 4.6 5.1 96 0.3 CALM 0 0 0 0 1027.8 1027.8 1.2
02/09:00pm 6.3 5.3 5.6 95 0.3 CALM 0 0 0 0 1027.8 1027.8 1.2
02/08:30pm 6.8 4.8 6.1 95 0.3 W 6 7 3 4 1027.6 1027.6 1.2
02/08:00pm 6.9 4.7 6.0 94 0.4 WSW 7 7 4 4 1027.8 1027.8 1.2
02/07:30pm 8.2 7.6 7.3 94 0.4 CALM 0 0 0 0 1027.5 1027.5 1.2
02/07:00pm 8.0 6.5 6.8 92 0.6 NNW 4 7 2 4 1027.3 1027.3 1.2
02/06:30pm 9.1 7.4 7.5 90 0.8 SW 6 7 3 4 1027.1 1027.1 1.2
02/06:00pm 10.2 7.7 8.0 86 1.1 SSE 11 15 6 8 1026.9 1026.9 1.2
02/05:30pm 11.1 7.6 7.4 78 1.8 SSE 15 20 8 11 1026.3 1026.3 1.2
02/05:00pm 11.5 7.8 8.0 79 1.7 S 17 24 9 13 1026.4 1026.4 1.2
02/04:30pm 11.7 7.1 8.0 78 1.8 SE 22 35 12 19 1026.4 1026.4 1.2
02/04:00pm 12.3 7.4 8.6 78 1.8 SSE 24 33 13 18 1026.3 1026.3 1.2
02/03:30pm 11.2 6.8 9.1 87 1.0 SSE 22 33 12 18 1026.2 1026.2 1.2
02/03:22pm 11.4 5.8 8.6 83 1.4 SSE 28 33 15 18 1026.2 1026.2 1.2
02/03:14pm 12.4 10.8 10.3 87 1.1 SE 9 15 5 8 1026.2 1026.2 1.2
02/03:00pm 11.3 9.9 9.0 86 1.1 SSE 6 - 3 - - 1026.3 1.0
02/02:51pm 11.8 6.8 9.7 87 1.1 S 26 30 14 16 1026.2 1026.2 0.8
02/02:30pm 12.5 8.5 9.1 80 1.7 SE 20 28 11 15 1026.0 1026.0 0.4
02/02:00pm 14.0 8.6 7.8 66 3.1 S 26 33 14 18 1025.8 1025.8 0.4
02/01:30pm 12.2 8.6 8.5 78 1.8 S 17 26 9 14 1026.0 1026.0 0.4
02/01:00pm 13.0 9.3 9.4 79 1.8 SE 19 26 10 14 1026.2 1026.2 0.4
02/12:30pm 11.8 7.3 8.6 81 1.6 S 22 33 12 18 1026.2 1026.2 0.4
02/12:00pm 12.2 7.3 8.3 77 1.9 S 24 32 13 17 1026.2 1026.2 0.4
02/11:30am 11.6 6.1 7.7 77 1.9 S 26 39 14 21 1026.2 1026.2 0.4
02/11:00am 13.1 8.2 8.4 73 2.3 S 24 30 13 16 1026.3 1026.3 0.0
02/10:30am 12.2 5.5 7.5 73 2.3 S 32 43 17 23 1026.3 1026.3 0.0
02/10:00am 14.0 7.7 7.3 64 3.3 S 30 35 16 19 1026.1 1026.1 0.0
02/09:30am 13.2 8.0 7.4 68 2.8 S 24 32 13 17 1025.9 1025.9 0.0
02/09:00am 11.9 9.1 8.4 79 1.7 SSW 13 15 7 8 1025.8 1025.8 1.0
02/08:30am 10.5 10.0 7.9 84 1.2 WSW 0 0 0 0 1025.5 1025.5 1.0
02/08:00am 7.8 7.0 6.3 90 0.7 CALM 0 0 0 0 1025.3 1025.3 1.0
02/07:30am 5.7 2.8 4.7 93 0.4 W 9 11 5 6 1025.1 1025.1 1.0
02/07:00am 4.6 1.4 3.1 90 0.6 WSW 9 13 5 7 1024.8 1024.8 1.0
02/06:30am 5.2 2.1 3.5 89 0.7 WSW 9 11 5 6 1024.3 1024.3 1.0
02/06:00am 5.3 1.9 3.8 90 0.6 WSW 11 11 6 6 1023.8 1023.8 1.0
02/05:30am 6.2 2.6 4.8 91 0.6 SW 13 15 7 8 1023.4 1023.4 1.0
02/05:00am 5.4 1.2 3.7 89 0.7 WSW 15 17 8 9 1022.9 1022.9 1.0
02/04:30am 5.6 1.8 4.1 90 0.6 WSW 13 13 7 7 1022.3 1022.3 1.0
02/04:00am 6.0 2.3 4.3 89 0.7 WSW 13 15 7 8 1022.0 1022.0 1.0
02/03:30am 6.5 3.2 4.8 89 0.7 W 11 13 6 7 1021.7 1021.7 1.0
02/03:00am 7.5 4.0 5.5 87 0.9 WSW 13 15 7 8 1021.6 1021.6 1.0
02/02:30am 6.9 3.4 5.4 90 0.7 WSW 13 17 7 9 1021.5 1021.5 1.0
02/02:00am 7.3 3.4 5.4 88 0.8 WSW 15 17 8 9 1021.2 1021.2 1.0
02/01:30am 7.4 3.1 5.4 87 0.9 WSW 17 20 9 11 1021.1 1021.1 1.0
02/01:00am 6.0 2.3 4.3 89 0.7 WSW 13 15 7 8 1021.0 1021.0 1.0
02/12:30am 6.8 2.8 5.0 88 0.8 W 15 19 8 10 1020.7 1020.7 1.0
02/12:00am 7.1 3.6 5.6 90 0.7 W 13 19 7 10 1020.7 1020.7 1.0
 
Date/Time
CST
Temp
°C
App
Temp
°C
Dew
Point
Rel
Hum
%
Delta-T
°C
Wind Press
QNH
hPa
Press
MSL
hPa
Rain
since 9 am
mm
Dir
 
Spd
km/h
Gust
km/h
Spd
kts
Gust
kts
01/11:30pm 6.9 3.3 5.2 89 0.7 W 13 15 7 8 1020.5 1020.5 1.0
01/11:00pm 7.1 2.8 5.3 88 0.8 W 17 20 9 11 1020.4 1020.4 0.8
01/10:30pm 6.9 2.5 4.7 86 1.0 W 17 20 9 11 1020.2 1020.2 0.8
01/10:00pm 6.8 2.8 5.1 89 0.7 W 15 19 8 10 1019.8 1019.8 0.8
01/09:30pm 7.1 4.0 5.4 89 0.8 WSW 11 15 6 8 1019.5 1019.5 0.8
01/09:00pm 8.3 4.1 5.6 83 1.2 SW 17 20 9 11 1019.2 1019.2 0.8
01/08:30pm 8.5 2.5 5.3 80 1.4 SSW 26 35 14 19 1018.9 1018.9 0.6
01/08:15pm 8.6 0.9 5.5 81 1.4 SW 35 44 19 24 1018.9 1018.9 0.4
01/08:00pm 8.2 3.9 5.1 81 1.4 SW 17 22 9 12 1018.5 1018.5 0.4
01/07:39pm 9.1 2.9 6.2 82 1.3 SW 28 46 15 25 1018.3 1018.3 0.4
01/07:30pm 8.6 3.1 6.1 84 1.1 SW 24 37 13 20 1018.1 1018.1 0.4
01/07:00pm 8.8 4.4 6.6 86 1.0 SW 19 28 10 15 1017.4 1017.4 0.4
01/06:30pm 8.2 3.9 5.1 81 1.4 SW 17 20 9 11 1017.0 1017.0 0.4
01/06:00pm 8.9 3.4 6.0 82 1.3 WSW 24 32 13 17 1016.6 1016.6 0.4
01/05:46pm 9.3 1.5 6.6 83 1.3 WSW 37 56 20 30 1016.6 1016.6 0.4
01/05:37pm 10.2 1.2 6.4 77 1.8 SW 43 56 23 30 1016.5 1016.5 0.4
01/05:30pm 10.8 6.5 7.9 82 1.4 SW 20 30 11 16 1016.2 1016.2 0.4
01/05:00pm 11.3 5.5 7.8 79 1.7 SW 28 44 15 24 1015.5 1015.5 0.4
01/04:30pm 13.0 8.0 7.9 71 2.5 SW 24 28 13 15 1015.0 1015.0 0.4
01/04:00pm 12.6 7.0 8.7 77 1.9 SW 28 39 15 21 1014.8 1014.8 0.4
01/03:40pm 11.8 6.1 8.3 79 1.7 SW 28 46 15 25 1014.7 1014.7 0.4
01/03:30pm 11.9 7.6 7.8 76 2.0 SW 20 28 11 15 1014.4 1014.4 0.4
01/03:00pm 14.0 10.6 7.8 66 3.1 W 15 20 8 11 1014.0 1014.0 0.0
01/02:30pm 14.3 11.1 8.3 67 3.0 SW 15 22 8 12 1014.0 1014.0 0.0
01/02:00pm 11.6 6.4 9.0 84 1.3 SW 26 37 14 20 1014.3 1014.3 0.0
01/01:50pm 11.4 3.5 7.7 78 1.8 SW 39 57 21 31 1014.3 1014.3 0.0
01/01:43pm 12.7 2.9 5.4 61 3.4 SW 46 57 25 31 1014.1 1014.1 0.0
01/01:30pm 14.6 8.8 4.6 51 4.6 SW 24 30 13 16 1013.8 1013.8 0.0
01/01:00pm 15.0 8.1 7.1 59 3.9 SW 33 46 18 25 1014.1 1014.1 0.0
01/12:53pm 15.6 9.3 7.4 58 4.1 SW 30 46 16 25 1014.1 1014.1 0.0
01/12:30pm 14.7 9.7 6.5 58 4.0 SW 22 28 12 15 1014.0 1014.0 0.0
01/12:00pm 14.1 8.6 5.7 57 4.0 WSW 24 33 13 18 1014.2 1014.2 0.0
01/11:30am 14.5 8.5 5.3 54 4.3 WSW 26 33 14 18 1014.2 1014.2 0.0
01/11:00am 15.4 9.4 7.2 58 4.0 WSW 28 39 15 21 1014.1 1014.1 0.0
01/10:30am 14.7 8.4 5.5 54 4.4 WSW 28 35 15 19 1014.1 1014.1 0.0
01/10:00am 14.1 7.6 6.7 61 3.6 WSW 30 39 16 21 1014.0 1014.0 0.0
01/09:30am 14.1 9.1 8.1 67 3.0 WSW 24 33 13 18 1014.0 1014.0 0.0
01/09:00am 13.0 8.2 7.5 69 2.7 WSW 22 32 12 17 1013.9 1013.9 1.6
01/08:30am 12.2 8.1 7.7 74 2.2 WSW 19 24 10 13 1013.7 1013.7 1.6
01/08:00am 11.1 7.5 8.5 84 1.3 WSW 17 20 9 11 1013.3 1013.3 1.6
01/07:30am 9.8 7.4 8.7 93 0.5 WSW 11 13 6 7 1013.0 1013.0 1.6
01/07:00am 9.0 6.7 7.6 91 0.7 W 9 11 5 6 1012.8 1012.8 1.6
01/06:30am 10.4 8.0 8.8 90 0.8 WSW 11 15 6 8 1012.5 1012.5 1.6
01/06:00am 10.7 8.9 9.3 91 0.7 W 9 13 5 7 1012.1 1012.1 1.6
01/05:30am 11.0 9.2 9.6 91 0.7 W 9 11 5 6 1011.9 1011.9 1.6
01/05:00am 11.3 9.2 9.7 90 0.8 W 11 13 6 7 1011.4 1011.4 1.6
01/04:30am 11.3 9.6 9.9 91 0.7 W 9 13 5 7 1011.2 1011.2 1.6
01/04:00am 11.4 9.4 10.1 92 0.7 W 11 15 6 8 1011.0 1011.0 1.6
01/03:30am 11.4 9.4 10.3 93 0.6 W 11 13 6 7 1010.9 1010.9 1.6
01/03:00am 11.4 9.4 10.3 93 0.6 W 11 13 6 7 1011.0 1011.0 1.6
01/02:30am 11.4 10.3 10.5 94 0.5 W 7 9 4 5 1011.0 1011.0 1.6
01/02:00am 11.5 10.3 10.4 93 0.6 W 7 9 4 5 1011.2 1011.2 1.6
01/01:30am 11.7 10.2 10.4 92 0.7 WSW 9 11 5 6 1011.4 1011.4 1.6
01/01:00am 11.8 10.3 10.5 92 0.7 WSW 9 9 5 5 1011.6 1011.6 1.6
01/12:30am 11.9 10.4 10.6 92 0.7 W 9 13 5 7 1011.4 1011.4 1.6
01/12:00am 12.1 9.9 10.8 92 0.7 W 13 17 7 9 1011.5 1011.5 1.6
 
Date/Time
CST
Temp
°C
App
Temp
°C
Dew
Point
Rel
Hum
%
Delta-T
°C
Wind Press
QNH
hPa
Press
MSL
hPa
Rain
since 9 am
mm
Dir
 
Spd
km/h
Gust
km/h
Spd
kts
Gust
kts
31/11:30pm 12.1 10.0 11.0 93 0.6 W 13 15 7 8 1011.1 1011.1 1.6
31/11:00pm 12.0 9.9 11.1 94 0.5 W 13 17 7 9 1011.0 1011.0 1.6
31/10:30pm 11.9 10.6 11.3 96 0.3 WSW 9 13 5 7 1010.7 1010.7 1.6
31/10:00pm 12.1 10.8 11.3 95 0.4 SW 9 13 5 7 1010.6 1010.6 1.6
31/09:30pm 12.5 10.5 11.6 94 0.5 WSW 13 17 7 9 1010.8 1010.8 1.4
31/09:00pm 12.7 10.0 11.6 93 0.6 WSW 17 22 9 12 1010.8 1010.8 1.4
31/08:50pm 12.9 10.2 11.8 93 0.6 WSW 17 24 9 13 1010.8 1010.8 1.2
31/08:30pm 13.3 10.4 12.4 94 0.5 WSW 19 22 10 12 1011.3 1011.3 0.8
31/08:23pm 13.4 11.0 12.6 95 0.4 WSW 17 22 9 12 1011.2 1011.2 0.8
31/08:00pm 13.7 11.3 12.6 93 0.6 WSW 17 22 9 12 1011.0 1011.0 0.4
31/07:30pm 14.2 12.0 12.2 88 1.1 WNW 15 19 8 10 1011.0 1011.0 0.2
31/07:00pm 14.2 12.2 11.4 83 1.5 W 13 17 7 9 1010.4 1010.4 0.0
31/06:30pm 14.3 11.3 10.7 79 1.9 WNW 17 20 9 11 1010.3 1010.3 0.0
31/06:00pm 15.2 11.2 8.9 66 3.2 WNW 20 28 11 15 1010.1 1010.1 0.0
31/05:30pm 15.5 12.1 7.8 60 3.9 WNW 15 20 8 11 1009.6 1009.6 0.0
31/05:00pm 16.1 12.7 7.6 57 4.2 NW 15 20 8 11 1009.7 1009.7 0.0
31/04:30pm 16.6 13.0 8.3 58 4.2 NW 17 24 9 13 1009.3 1009.3 0.0
31/04:00pm 17.1 13.2 7.2 52 4.9 NW 17 24 9 13 1009.1 1009.1 0.0
31/03:30pm 17.4 12.4 6.6 49 5.3 NW 22 30 12 16 1009.7 1009.7 0.0
31/03:00pm 17.6 13.3 9.2 58 4.4 NW 22 30 12 16 1010.0 1010.0 0.0
31/02:30pm 17.9 12.5 8.2 53 5.0 NW 26 35 14 19 1009.6 1009.6 0.0
31/02:00pm 17.5 12.4 7.8 53 4.9 NNW 24 39 13 21 1009.5 1009.5 0.0
31/01:30pm 17.4 13.0 7.5 52 5.0 NNW 20 37 11 20 1009.7 1009.7 0.0
31/01:00pm 17.0 13.3 7.9 55 4.6 N 17 24 9 13 1010.0 1010.0 0.0
31/12:30pm 17.4 13.6 7.5 52 5.0 NW 17 26 9 14 1011.5 1011.5 0.0
31/12:00pm 17.3 14.0 7.9 54 4.8 NNW 15 26 8 14 1011.2 1011.2 0.0
31/11:30am 17.6 12.6 7.9 53 4.9 NNW 24 33 13 18 1012.2 1012.2 0.0
31/11:00am 17.6 11.7 7.6 52 5.0 NNW 28 43 15 23 1012.8 1012.8 0.0
31/10:30am 17.5 11.5 7.0 50 5.2 NNW 28 39 15 21 1012.7 1012.7 0.0
31/10:00am 16.9 11.8 7.8 55 4.6 NNW 24 33 13 18 1013.0 1013.0 0.0
31/09:30am 15.6 11.3 7.9 60 3.9 N 20 30 11 16 1013.2 1013.2 0.0
31/09:00am 14.9 10.5 7.5 61 3.7 N 20 32 11 17 1013.5 1013.5 0.0
31/08:30am 14.6 10.9 7.9 64 3.3 N 17 26 9 14 1013.3 1013.3 0.0
31/08:00am 14.4 10.4 8.1 66 3.1 N 19 30 10 16 1013.3 1013.3 0.0
31/07:30am 14.5 11.6 8.2 66 3.2 N 13 19 7 10 1013.6 1013.6 0.0
31/07:00am 14.8 12.6 7.8 63 3.5 N 9 15 5 8 1013.8 1013.8 0.0
31/06:30am 13.9 11.6 7.4 65 3.2 N 9 15 5 8 1014.1 1014.1 0.0
31/06:00am 13.7 10.6 7.2 65 3.2 N 13 17 7 9 1013.8 1013.8 0.0
31/05:30am 14.4 10.4 6.5 59 3.8 N 17 22 9 12 1013.5 1013.5 0.0
31/05:00am 13.4 12.6 6.7 64 3.2 CALM 0 0 0 0 1014.0 1014.0 0.0
31/04:30am 13.8 10.7 7.3 65 3.2 N 13 17 7 9 1013.7 1013.7 0.0
31/04:00am 13.3 10.8 6.6 64 3.2 N 9 11 5 6 1013.7 1013.7 0.0
31/03:30am 13.7 11.3 7.0 64 3.2 NNW 9 13 5 7 1014.1 1014.1 0.0
31/03:00am 13.3 10.9 7.1 66 3.0 N 9 13 5 7 1014.2 1014.2 0.0
31/02:30am 12.5 10.3 7.8 73 2.3 NNW 9 13 5 7 1014.5 1014.5 0.0
31/02:00am 13.5 10.6 8.1 70 2.7 N 13 17 7 9 1014.3 1014.3 0.0
31/01:30am 13.1 11.3 8.0 71 2.5 N 7 9 4 5 1014.8 1014.8 0.0
31/01:00am 13.6 11.2 6.9 64 3.2 N 9 13 5 7 1015.3 1015.3 0.0
31/12:30am 13.6 11.6 6.2 61 3.5 NW 6 9 3 5 1015.5 1015.5 0.0
31/12:00am 14.2 12.0 6.3 59 3.8 NNW 7 11 4 6 1015.4 1015.4 0.0
 
Date/Time
CST
Temp
°C
App
Temp
°C
Dew
Point
Rel
Hum
%
Delta-T
°C
Wind Press
QNH
hPa
Press
MSL
hPa
Rain
since 9 am
mm
Dir
 
Spd
km/h
Gust
km/h
Spd
kts
Gust
kts
30/11:30pm 15.7 11.7 6.7 55 4.4 N 17 22 9 12 1015.7 1015.7 0.0

Other Formats:

Comma delimited format used in spreadsheet applications
http://www.bom.gov.au/fwo/IDS60801/IDS60801.95807.axf

JavaScript Object Notation format (JSON) in row-major order
http://www.bom.gov.au/fwo/IDS60801/IDS60801.95807.json